TimePDT,TemperatureF,Dew PointF,Humidity,Sea Level PressureIn,VisibilityMPH,Wind Direction,Wind SpeedMPH,Gust SpeedMPH,PrecipitationIn,Events,Conditions,WindDirDegrees,DateUTC
12:53 AM,41.0,37.0,86,30.10,10.0,NW,3.5,-,N/A,,Clear,310,2013-06-21 07:53:00
1:53 AM,37.9,35.1,89,30.09,10.0,Calm,Calm,-,N/A,,Clear,0,2013-06-21 08:53:00
2:53 AM,39.0,35.1,86,30.10,10.0,Calm,Calm,-,N/A,,Clear,0,2013-06-21 09:53:00
3:53 AM,36.0,35.1,97,30.09,10.0,Calm,Calm,-,N/A,,Clear,0,2013-06-21 10:53:00
4:53 AM,34.0,32.0,92,30.09,10.0,Calm,Calm,-,N/A,,Clear,0,2013-06-21 11:53:00
5:21 AM,33.8,32.0,93,30.12,2.0,Calm,Calm,-,N/A,,Partly Cloudy,0,2013-06-21 12:21:00
5:28 AM,33.8,33.8,100,30.12,1.2,Calm,Calm,-,N/A,,Mostly Cloudy,0,2013-06-21 12:28:00
5:32 AM,33.8,32.0,93,30.12,2.5,Calm,Calm,-,N/A,,Scattered Clouds,0,2013-06-21 12:32:00
5:39 AM,33.8,32.0,93,30.12,10.0,Calm,Calm,-,N/A,,Scattered Clouds,0,2013-06-21 12:39:00
5:48 AM,33.8,32.0,93,30.12,1.0,Calm,Calm,-,N/A,,Mist,0,2013-06-21 12:48:00
5:53 AM,33.1,32.0,96,30.09,0.5,Calm,Calm,-,N/A,Fog,Fog,0,2013-06-21 12:53:00
6:02 AM,32.0,32.0,100,30.12,0.5,Calm,Calm,-,N/A,Fog,Fog,0,2013-06-21 13:02:00
6:20 AM,33.8,33.8,100,30.12,2.0,Calm,Calm,-,N/A,,Clear,0,2013-06-21 13:20:00
6:27 AM,35.6,35.6,100,30.12,10.0,Calm,Calm,-,N/A,,Clear,0,2013-06-21 13:27:00
6:53 AM,39.9,37.0,89,30.09,10.0,Calm,Calm,-,N/A,,Clear,0,2013-06-21 13:53:00
7:53 AM,46.9,39.0,74,30.09,10.0,Calm,Calm,-,N/A,,Clear,0,2013-06-21 14:53:00
8:53 AM,52.0,39.0,61,30.09,10.0,NNW,3.5,-,N/A,,Clear,330,2013-06-21 15:53:00
9:53 AM,55.9,39.0,53,30.09,10.0,NNE,3.5,-,N/A,,Partly Cloudy,30,2013-06-21 16:53:00
10:53 AM,57.0,37.9,49,30.09,10.0,Variable,3.5,-,N/A,,Scattered Clouds,0,2013-06-21 17:53:00
11:53 AM,60.1,36.0,41,30.08,10.0,SW,4.6,-,N/A,,Clear,230,2013-06-21 18:53:00
12:53 PM,64.0,33.1,31,30.07,10.0,NW,9.2,-,N/A,,Clear,320,2013-06-21 19:53:00
1:53 PM,66.9,30.0,25,30.05,10.0,NNW,12.7,17.3,N/A,,Clear,330,2013-06-21 20:53:00
2:53 PM,68.0,30.9,25,30.04,10.0,WNW,9.2,-,N/A,,Partly Cloudy,300,2013-06-21 21:53:00
3:53 PM,69.1,34.0,27,30.03,10.0,Calm,Calm,-,N/A,,Partly Cloudy,0,2013-06-21 22:53:00
4:53 PM,70.0,28.0,21,30.04,10.0,North,13.8,23.0,N/A,,Clear,350,2013-06-21 23:53:00
5:53 PM,69.1,34.0,27,30.04,10.0,NW,18.4,24.2,N/A,,Overcast,320,2013-06-22 00:53:00
6:53 PM,66.9,35.1,31,30.02,10.0,NNW,16.1,-,N/A,,Clear,330,2013-06-22 01:53:00
7:53 PM,64.0,36.0,35,30.02,10.0,NNW,15.0,-,N/A,,Clear,340,2013-06-22 02:53:00
8:53 PM,59.0,37.9,46,30.03,10.0,NNW,10.4,-,N/A,,Clear,340,2013-06-22 03:53:00
9:53 PM,55.0,41.0,59,30.05,10.0,West,8.1,-,N/A,,Clear,270,2013-06-22 04:53:00
10:53 PM,53.1,41.0,64,30.06,10.0,Calm,Calm,-,N/A,,Clear,0,2013-06-22 05:53:00
11:53 PM,50.0,42.1,74,30.07,10.0,Variable,3.5,-,N/A,,Clear,0,2013-06-22 06:53:00